Time;durP1;ratioP1;P1;durP2;ratioP2;P2;SDS_P1;SDS_P2;PMS_P1;PMS_P2;Temp;Humidity;BMP_temperature;BMP_pressure;BME280_temperature;BME280_humidity;BME280_pressure;Samples;Min_cycle;Max_cycle;Signal;HPM_P1;HPM_P2
2023/03/23 00:01:32;;;;;;;12.13;9.50;;;;;;;;;;5054303;28;20128;-74
2023/03/23 00:03:58;;;;;;;15.30;10.18;;;;;;;;;;5054012;28;20378;-75
2023/03/23 00:06:25;;;;;;;15.88;10.82;;;;;;;;;;5052808;28;20422;-75
2023/03/23 00:08:56;;;;;;;18.20;12.45;;;;;;;;;;5052312;28;20057;-76
2023/03/23 00:11:23;;;;;;;22.15;13.45;;;;;;;;;;5053567;28;20095;-75
2023/03/23 00:13:51;;;;;;;23.73;16.35;;;;;;;;;;5036170;28;20436;-75
2023/03/23 00:16:17;;;;;;;24.95;16.63;;;;;;;;;;5053989;28;20041;-74
2023/03/23 00:18:47;;;;;;;29.85;18.35;;;;;;;;;;5054243;28;20045;-75
2023/03/23 00:21:13;;;;;;;31.02;19.88;;;;;;;;;;5036003;28;20053;-75
2023/03/23 00:23:39;;;;;;;31.52;20.98;;;;;;;;;;5053945;28;20068;-75
2023/03/23 00:26:05;;;;;;;33.53;21.38;;;;;;;;;;5053888;28;20101;-75
2023/03/23 00:28:31;;;;;;;29.02;16.65;;;;;;;;;;5053940;28;20049;-74
2023/03/23 00:30:57;;;;;;;20.83;13.32;;;;;;;;;;5035791;28;20049;-75
2023/03/23 00:33:24;;;;;;;23.70;14.50;;;;;;;;;;5053775;28;20060;-76
2023/03/23 00:35:52;;;;;;;20.40;14.13;;;;;;;;;;5053856;28;20044;-74
2023/03/23 00:38:19;;;;;;;20.30;14.93;;;;;;;;;;5060800;28;20091;-75
2023/03/23 00:40:46;;;;;;;22.23;15.85;;;;;;;;;;5069000;28;20041;-74
2023/03/23 00:43:13;;;;;;;25.58;19.00;;;;;;;;;;5035503;28;20149;-75
2023/03/23 00:45:39;;;;;;;26.83;19.23;;;;;;;;;;5035270;28;20140;-75
2023/03/23 00:48:06;;;;;;;30.30;21.05;;;;;;;;;;5053480;28;20102;-75
2023/03/23 00:50:32;;;;;;;33.90;22.35;;;;;;;;;;5053140;28;20080;-75
2023/03/23 00:52:58;;;;;;;31.33;21.25;;;;;;;;;;5053074;28;20041;-75
2023/03/23 00:55:25;;;;;;;35.03;22.50;;;;;;;;;;5068515;28;20069;-74
2023/03/23 00:57:51;;;;;;;32.13;21.70;;;;;;;;;;5053132;28;20405;-75
2023/03/23 01:00:19;;;;;;;27.30;20.48;;;;;;;;;;5053002;28;20045;-74
2023/03/23 01:02:45;;;;;;;24.17;16.73;;;;;;;;;;5053028;28;20109;-75
2023/03/23 01:05:12;;;;;;;20.95;15.35;;;;;;;;;;5052289;28;20037;-75
2023/03/23 01:07:38;;;;;;;15.52;9.88;;;;;;;;;;5050513;28;20041;-75
2023/03/23 01:10:04;;;;;;;12.85;7.78;;;;;;;;;;5051957;28;20052;-75
2023/03/23 01:12:30;;;;;;;9.35;5.88;;;;;;;;;;5068209;28;20050;-75
2023/03/23 01:14:56;;;;;;;7.13;4.68;;;;;;;;;;5067956;28;20056;-74
2023/03/23 01:17:22;;;;;;;7.13;4.22;;;;;;;;;;5050217;28;20045;-75
2023/03/23 01:19:49;;;;;;;6.13;3.35;;;;;;;;;;5068227;28;20095;-75
2023/03/23 01:22:15;;;;;;;4.70;3.50;;;;;;;;;;5052747;28;20049;-75
2023/03/23 01:24:41;;;;;;;6.20;3.38;;;;;;;;;;5068014;28;20056;-75
2023/03/23 01:27:07;;;;;;;6.32;3.85;;;;;;;;;;5051533;28;20122;-75
2023/03/23 01:29:36;;;;;;;9.25;4.70;;;;;;;;;;5067749;28;20055;-76
2023/03/23 01:32:03;;;;;;;9.43;5.32;;;;;;;;;;5052497;28;20084;-75
2023/03/23 01:34:29;;;;;;;11.32;6.35;;;;;;;;;;5051909;28;20051;-75
2023/03/23 01:36:56;;;;;;;11.05;7.13;;;;;;;;;;5051552;28;20049;-74
2023/03/23 01:39:22;;;;;;;10.55;8.20;;;;;;;;;;5072499;28;20041;-74
2023/03/23 01:41:48;;;;;;;14.00;8.35;;;;;;;;;;5054659;28;20037;-75
2023/03/23 01:44:17;;;;;;;13.65;8.48;;;;;;;;;;5054112;28;20400;-75
2023/03/23 01:46:44;;;;;;;14.38;8.35;;;;;;;;;;5072467;28;20098;-74
2023/03/23 01:49:14;;;;;;;15.00;8.40;;;;;;;;;;5072383;28;20128;-74
2023/03/23 01:51:42;;;;;;;13.20;9.05;;;;;;;;;;5072609;28;20140;-75
2023/03/23 01:54:13;;;;;;;14.82;9.13;;;;;;;;;;5072138;28;20484;-75
2023/03/23 01:56:45;;;;;;;16.73;10.02;;;;;;;;;;5054517;28;20045;-75
2023/03/23 01:59:12;;;;;;;15.55;9.55;;;;;;;;;;5072049;28;20048;-75
2023/03/23 02:01:44;;;;;;;16.65;9.68;;;;;;;;;;5072291;28;20052;-75
2023/03/23 02:04:10;;;;;;;15.35;9.52;;;;;;;;;;5072168;28;20071;-74
2023/03/23 02:06:37;;;;;;;13.90;8.50;;;;;;;;;;5072355;28;20105;-74
2023/03/23 02:09:06;;;;;;;16.23;8.55;;;;;;;;;;5037419;28;20059;-74
2023/03/23 02:11:32;;;;;;;10.85;7.88;;;;;;;;;;5054132;28;20045;-73
2023/03/23 02:13:58;;;;;;;15.38;8.10;;;;;;;;;;5071715;28;20051;-73
2023/03/23 02:16:36;;;;;;;12.27;7.30;;;;;;;;;;5054396;28;20036;-73
2023/03/23 02:19:02;;;;;;;12.63;8.07;;;;;;;;;;5075929;28;20044;-73
2023/03/23 02:21:37;;;;;;;15.90;7.65;;;;;;;;;;5076367;28;20040;-73
2023/03/23 02:24:03;;;;;;;10.90;7.15;;;;;;;;;;5057849;28;20044;-73
2023/03/23 02:26:29;;;;;;;11.95;6.85;;;;;;;;;;5075981;28;20044;-73
2023/03/23 02:29:14;;;;;;;12.63;7.40;;;;;;;;;;5055745;28;20044;-75
2023/03/23 02:31:40;;;;;;;14.05;6.85;;;;;;;;;;5057375;28;20511;-74
2023/03/23 02:34:12;;;;;;;9.75;6.70;;;;;;;;;;5075619;28;20106;-74
2023/03/23 02:36:43;;;;;;;10.48;6.15;;;;;;;;;;5074615;28;20048;-74
2023/03/23 02:39:09;;;;;;;11.38;7.07;;;;;;;;;;5075202;28;20089;-74
2023/03/23 02:41:41;;;;;;;10.95;6.47;;;;;;;;;;5057752;28;20134;-74
2023/03/23 02:44:07;;;;;;;10.23;6.55;;;;;;;;;;5075327;28;20075;-74
2023/03/23 02:46:35;;;;;;;11.23;6.35;;;;;;;;;;5075828;28;20047;-74
2023/03/23 02:49:02;;;;;;;12.88;6.65;;;;;;;;;;5057506;28;20040;-74
2023/03/23 02:51:30;;;;;;;11.77;5.63;;;;;;;;;;5075527;28;20049;-74
2023/03/23 02:53:57;;;;;;;8.35;5.88;;;;;;;;;;5040631;28;20044;-74
2023/03/23 02:56:24;;;;;;;12.10;6.50;;;;;;;;;;5057917;28;20377;-74
2023/03/23 02:58:50;;;;;;;11.40;5.80;;;;;;;;;;5057570;28;20041;-74
2023/03/23 03:01:16;;;;;;;10.30;5.60;;;;;;;;;;5039875;28;20558;-74
2023/03/23 03:03:42;;;;;;;11.80;5.13;;;;;;;;;;5056909;28;20057;-74
2023/03/23 03:06:32;;;;;;;10.23;5.90;;;;;;;;;;5040567;28;20040;-74
2023/03/23 03:09:02;;;;;;;8.13;5.10;;;;;;;;;;5056145;28;20476;-74
2023/03/23 03:11:28;;;;;;;9.30;5.25;;;;;;;;;;5057313;28;20052;-74
2023/03/23 03:13:59;;;;;;;9.70;5.07;;;;;;;;;;5075161;28;20505;-74
2023/03/23 03:16:30;;;;;;;8.68;5.10;;;;;;;;;;5075782;28;20117;-74
2023/03/23 03:19:03;;;;;;;7.63;4.53;;;;;;;;;;5056940;28;20072;-74
2023/03/23 03:21:31;;;;;;;9.95;4.82;;;;;;;;;;5057169;28;20091;-74
2023/03/23 03:24:00;;;;;;;11.80;4.90;;;;;;;;;;5056812;28;20045;-74
2023/03/23 03:26:27;;;;;;;9.07;4.95;;;;;;;;;;5075062;28;20048;-74
2023/03/23 03:28:54;;;;;;;9.45;4.90;;;;;;;;;;5055643;28;20044;-73
2023/03/23 03:31:31;;;;;;;9.95;4.78;;;;;;;;;;5040336;28;20101;-74
2023/03/23 03:34:00;;;;;;;8.55;4.32;;;;;;;;;;5074690;28;20097;-74
2023/03/23 03:36:34;;;;;;;10.77;4.82;;;;;;;;;;5075016;28;20127;-73
2023/03/23 03:39:03;;;;;;;8.75;4.68;;;;;;;;;;5073513;28;20377;-74
2023/03/23 03:41:29;;;;;;;6.63;4.50;;;;;;;;;;5073745;28;20075;-73
2023/03/23 03:43:55;;;;;;;9.00;4.60;;;;;;;;;;5056343;28;20108;-74
2023/03/23 03:46:21;;;;;;;8.50;4.55;;;;;;;;;;5056618;28;20126;-74
2023/03/23 03:48:48;;;;;;;9.25;4.60;;;;;;;;;;5056509;28;20044;-73
2023/03/23 03:51:14;;;;;;;9.48;4.15;;;;;;;;;;5056441;28;20171;-73
2023/03/23 03:53:40;;;;;;;10.13;4.57;;;;;;;;;;5073454;28;20044;-74
2023/03/23 03:56:07;;;;;;;8.95;5.03;;;;;;;;;;5073634;28;20044;-73
2023/03/23 03:58:35;;;;;;;12.20;5.40;;;;;;;;;;5074320;28;20090;-74
2023/03/23 04:01:02;;;;;;;9.73;5.57;;;;;;;;;;5071990;28;20378;-74
2023/03/23 04:03:28;;;;;;;11.15;5.60;;;;;;;;;;5036779;28;20238;-74
2023/03/23 04:05:55;;;;;;;10.73;5.72;;;;;;;;;;5054815;28;20116;-73
2023/03/23 04:08:24;;;;;;;12.00;5.50;;;;;;;;;;5072737;28;20306;-74
2023/03/23 04:10:51;;;;;;;9.27;5.10;;;;;;;;;;5037483;28;20044;-74
2023/03/23 04:13:17;;;;;;;10.75;4.97;;;;;;;;;;5073595;28;20044;-73
2023/03/23 04:15:47;;;;;;;10.35;4.93;;;;;;;;;;5055968;28;20044;-74
2023/03/23 04:18:14;;;;;;;10.13;4.38;;;;;;;;;;5074151;28;20037;-73
2023/03/23 04:20:41;;;;;;;5.80;3.17;;;;;;;;;;5074025;28;20127;-74
2023/03/23 04:23:07;;;;;;;6.82;2.63;;;;;;;;;;5073774;28;20122;-74
2023/03/23 04:25:33;;;;;;;8.40;2.75;;;;;;;;;;5055898;28;20058;-74
2023/03/23 04:28:01;;;;;;;4.40;2.47;;;;;;;;;;5072705;28;20072;-73
2023/03/23 04:30:29;;;;;;;6.03;2.80;;;;;;;;;;5055601;28;20045;-73
2023/03/23 04:32:55;;;;;;;7.55;3.08;;;;;;;;;;5073561;28;20053;-74
2023/03/23 04:35:22;;;;;;;8.48;3.38;;;;;;;;;;5055748;28;20091;-74
2023/03/23 04:37:48;;;;;;;6.45;3.67;;;;;;;;;;5065620;28;20041;-74
2023/03/23 04:40:14;;;;;;;6.65;2.55;;;;;;;;;;5053317;28;20102;-74
2023/03/23 04:42:45;;;;;;;10.20;2.92;;;;;;;;;;5053317;28;20048;-74
2023/03/23 04:45:12;;;;;;;6.63;2.95;;;;;;;;;;5053321;28;20041;-74
2023/03/23 04:47:40;;;;;;;8.40;3.03;;;;;;;;;;5017299;28;20045;-74
2023/03/23 04:50:13;;;;;;;11.57;3.30;;;;;;;;;;5052628;28;20084;-73
2023/03/23 04:52:44;;;;;;;8.70;3.00;;;;;;;;;;5053066;28;20055;-73
2023/03/23 04:55:10;;;;;;;8.63;2.60;;;;;;;;;;5018811;28;20057;-73
2023/03/23 04:57:36;;;;;;;9.90;2.92;;;;;;;;;;5053101;28;20144;-73
2023/03/23 05:00:08;;;;;;;9.02;2.83;;;;;;;;;;5035209;28;20080;-74
2023/03/23 05:02:35;;;;;;;10.15;2.80;;;;;;;;;;5034710;28;20055;-74
2023/03/23 05:05:01;;;;;;;9.20;2.97;;;;;;;;;;5033668;28;20057;-74
2023/03/23 05:07:27;;;;;;;8.60;2.80;;;;;;;;;;5033690;28;20514;-74
2023/03/23 05:09:53;;;;;;;10.65;3.30;;;;;;;;;;5034833;28;20122;-74
2023/03/23 05:12:19;;;;;;;9.65;2.95;;;;;;;;;;5052838;28;20049;-74
2023/03/23 05:14:45;;;;;;;9.07;3.60;;;;;;;;;;5052853;28;20060;-75
2023/03/23 05:17:12;;;;;;;9.18;3.50;;;;;;;;;;5053117;28;20059;-74
2023/03/23 05:19:41;;;;;;;11.13;3.60;;;;;;;;;;5034926;28;20088;-74
2023/03/23 05:22:07;;;;;;;13.27;4.43;;;;;;;;;;5052690;28;20075;-74
2023/03/23 05:24:33;;;;;;;8.05;4.00;;;;;;;;;;5052557;28;20080;-74
2023/03/23 05:27:00;;;;;;;12.60;4.47;;;;;;;;;;5052653;28;20059;-74
2023/03/23 05:29:26;;;;;;;10.75;4.80;;;;;;;;;;5031939;28;20041;-74
2023/03/23 05:31:55;;;;;;;13.98;4.82;;;;;;;;;;5034015;28;20056;-74
2023/03/23 05:34:21;;;;;;;14.95;5.10;;;;;;;;;;5052454;28;20072;-74
2023/03/23 05:36:47;;;;;;;15.63;4.90;;;;;;;;;;5052657;28;20460;-74
2023/03/23 05:39:14;;;;;;;13.10;4.85;;;;;;;;;;5033991;28;20068;-74
2023/03/23 05:41:40;;;;;;;14.52;5.25;;;;;;;;;;5034542;28;20049;-74
2023/03/23 05:44:06;;;;;;;18.73;5.03;;;;;;;;;;5034074;28;20049;-74
2023/03/23 05:46:33;;;;;;;15.38;4.20;;;;;;;;;;5034846;28;20052;-74
2023/03/23 05:48:59;;;;;;;21.05;4.38;;;;;;;;;;5034406;28;20045;-74
2023/03/23 05:51:26;;;;;;;16.58;4.53;;;;;;;;;;5033955;28;20055;-74
2023/03/23 05:53:52;;;;;;;15.88;4.30;;;;;;;;;;5052358;28;20052;-74
2023/03/23 05:56:21;;;;;;;19.20;3.90;;;;;;;;;;5034509;28;20130;-74
2023/03/23 05:58:47;;;;;;;13.57;3.78;;;;;;;;;;5033990;28;20438;-74
2023/03/23 06:01:13;;;;;;;18.00;4.20;;;;;;;;;;5034128;28;20041;-74
2023/03/23 06:03:40;;;;;;;22.23;4.50;;;;;;;;;;5033760;28;20049;-74
2023/03/23 06:06:07;;;;;;;19.70;4.13;;;;;;;;;;5051347;28;20095;-74
2023/03/23 06:08:33;;;;;;;19.27;4.22;;;;;;;;;;5051141;28;20148;-74
2023/03/23 06:10:59;;;;;;;22.20;4.63;;;;;;;;;;5052138;28;20084;-74
2023/03/23 06:13:25;;;;;;;23.50;4.13;;;;;;;;;;5051689;28;20110;-74
2023/03/23 06:15:57;;;;;;;19.35;4.25;;;;;;;;;;5034160;28;20041;-74
2023/03/23 06:18:23;;;;;;;18.95;3.63;;;;;;;;;;5051978;28;20114;-74
2023/03/23 06:20:49;;;;;;;19.55;4.38;;;;;;;;;;5051610;28;20086;-74
2023/03/23 06:23:15;;;;;;;22.02;4.68;;;;;;;;;;5051255;28;20052;-74
2023/03/23 06:25:41;;;;;;;21.75;4.90;;;;;;;;;;5033611;28;20500;-74
2023/03/23 06:28:09;;;;;;;21.60;4.18;;;;;;;;;;5032138;28;20139;-74
2023/03/23 06:30:35;;;;;;;23.73;4.50;;;;;;;;;;5030637;28;20052;-74
2023/03/23 06:33:01;;;;;;;21.05;4.00;;;;;;;;;;5033495;28;20075;-74
2023/03/23 06:35:27;;;;;;;25.65;4.75;;;;;;;;;;5017105;28;20126;-74
2023/03/23 06:37:53;;;;;;;17.75;4.05;;;;;;;;;;5051300;28;20060;-74
2023/03/23 06:40:21;;;;;;;17.50;3.75;;;;;;;;;;5051425;28;20126;-74
2023/03/23 06:42:47;;;;;;;16.33;3.72;;;;;;;;;;5051163;28;20049;-73
2023/03/23 06:45:13;;;;;;;22.75;4.03;;;;;;;;;;5048052;28;20051;-74
2023/03/23 06:47:39;;;;;;;18.02;3.60;;;;;;;;;;5015467;28;20320;-74
2023/03/23 06:50:05;;;;;;;13.57;3.20;;;;;;;;;;5032881;28;20555;-74
2023/03/23 06:52:31;;;;;;;12.63;2.72;;;;;;;;;;5051416;28;20512;-75
2023/03/23 06:54:57;;;;;;;11.32;3.13;;;;;;;;;;5033458;28;20439;-76
2023/03/23 06:57:23;;;;;;;11.40;2.75;;;;;;;;;;5049595;28;20087;-75
2023/03/23 06:59:49;;;;;;;13.05;2.63;;;;;;;;;;5048260;28;20121;-76
2023/03/23 07:02:16;;;;;;;11.13;3.08;;;;;;;;;;5033200;28;20052;-76
2023/03/23 07:04:42;;;;;;;10.98;2.90;;;;;;;;;;5035514;28;20099;-76
2023/03/23 07:07:09;;;;;;;13.07;2.72;;;;;;;;;;5055392;28;20045;-76
2023/03/23 07:09:35;;;;;;;12.32;2.63;;;;;;;;;;5054576;28;20052;-76
2023/03/23 07:12:02;;;;;;;13.90;2.65;;;;;;;;;;5054729;28;20041;-76
2023/03/23 07:14:30;;;;;;;10.70;2.45;;;;;;;;;;5036929;28;20091;-76
2023/03/23 07:16:56;;;;;;;16.55;3.00;;;;;;;;;;5054779;28;20047;-76
2023/03/23 07:19:22;;;;;;;13.40;3.85;;;;;;;;;;5054455;28;20041;-75
2023/03/23 07:21:48;;;;;;;13.80;3.17;;;;;;;;;;5036652;28;20052;-75
2023/03/23 07:24:19;;;;;;;16.85;3.80;;;;;;;;;;5036697;28;20056;-75
2023/03/23 07:26:45;;;;;;;14.30;3.20;;;;;;;;;;5036440;28;20045;-74
2023/03/23 07:29:11;;;;;;;14.27;3.60;;;;;;;;;;5054379;28;20049;-75
2023/03/23 07:31:37;;;;;;;17.30;3.40;;;;;;;;;;5054632;28;20077;-74
2023/03/23 07:34:03;;;;;;;14.23;3.42;;;;;;;;;;5053934;28;20045;-75
2023/03/23 07:36:30;;;;;;;17.67;3.58;;;;;;;;;;5053222;28;20409;-75
2023/03/23 07:38:56;;;;;;;15.45;3.90;;;;;;;;;;5019305;28;20049;-74
2023/03/23 07:41:22;;;;;;;21.52;4.28;;;;;;;;;;5054320;28;20482;-74
2023/03/23 07:43:48;;;;;;;22.50;4.60;;;;;;;;;;5054336;28;20397;-74
2023/03/23 07:46:14;;;;;;;21.98;4.97;;;;;;;;;;5036478;28;20045;-75
2023/03/23 07:48:41;;;;;;;23.25;4.88;;;;;;;;;;5054146;28;20053;-75
2023/03/23 07:51:08;;;;;;;23.50;4.53;;;;;;;;;;5036139;28;20405;-75
2023/03/23 07:53:34;;;;;;;29.08;5.13;;;;;;;;;;5019518;28;20065;-75
2023/03/23 07:56:01;;;;;;;22.95;4.45;;;;;;;;;;5051854;28;20090;-74
2023/03/23 07:58:28;;;;;;;20.88;4.90;;;;;;;;;;5052802;28;20064;-74
2023/03/23 08:00:57;;;;;;;24.88;4.90;;;;;;;;;;5035635;28;20052;-74
2023/03/23 08:03:23;;;;;;;23.08;4.70;;;;;;;;;;5053855;28;20144;-74
2023/03/23 08:05:50;;;;;;;23.48;4.93;;;;;;;;;;5053741;28;20148;-74
2023/03/23 08:08:16;;;;;;;24.20;5.07;;;;;;;;;;5035819;28;20121;-75
2023/03/23 08:10:42;;;;;;;23.50;4.35;;;;;;;;;;5035773;28;20049;-75
2023/03/23 08:13:09;;;;;;;25.70;5.25;;;;;;;;;;5053420;28;20456;-75
2023/03/23 08:15:37;;;;;;;22.05;5.03;;;;;;;;;;5035341;28;20415;-75
2023/03/23 08:18:04;;;;;;;21.83;4.68;;;;;;;;;;5036161;28;20048;-75
2023/03/23 08:20:31;;;;;;;23.33;4.78;;;;;;;;;;5035696;28;20048;-75
2023/03/23 08:22:58;;;;;;;25.65;4.85;;;;;;;;;;5053518;28;20045;-74
2023/03/23 08:25:25;;;;;;;26.88;5.50;;;;;;;;;;5035718;28;20094;-75
2023/03/23 08:27:52;;;;;;;26.08;4.90;;;;;;;;;;5053839;28;20049;-75
2023/03/23 08:30:22;;;;;;;23.05;5.05;;;;;;;;;;5053591;28;20124;-74
2023/03/23 08:32:49;;;;;;;23.63;4.90;;;;;;;;;;5053565;28;20045;-75
2023/03/23 08:35:15;;;;;;;23.05;4.72;;;;;;;;;;5035714;28;20045;-75
2023/03/23 08:37:41;;;;;;;23.58;4.95;;;;;;;;;;5039046;28;20043;-75
2023/03/23 08:40:09;;;;;;;23.00;4.47;;;;;;;;;;5053422;28;20460;-74
2023/03/23 08:42:36;;;;;;;20.20;5.32;;;;;;;;;;5019114;28;20049;-74
2023/03/23 08:45:02;;;;;;;22.10;4.55;;;;;;;;;;5035604;28;20044;-74
2023/03/23 08:47:29;;;;;;;25.17;4.70;;;;;;;;;;5053715;28;20085;-74
2023/03/23 08:49:55;;;;;;;23.75;4.78;;;;;;;;;;5053185;28;20580;-74
2023/03/23 08:52:21;;;;;;;23.23;4.78;;;;;;;;;;5053402;28;20094;-74
2023/03/23 08:54:47;;;;;;;16.33;4.45;;;;;;;;;;5035384;28;20128;-75
2023/03/23 08:57:18;;;;;;;24.85;4.70;;;;;;;;;;5035647;28;20045;-75
2023/03/23 08:59:44;;;;;;;24.63;4.68;;;;;;;;;;5035272;28;20171;-76
2023/03/23 09:02:14;;;;;;;20.80;4.63;;;;;;;;;;5018801;28;20074;-75
2023/03/23 09:04:42;;;;;;;21.98;4.75;;;;;;;;;;5051623;28;20409;-75
2023/03/23 09:07:09;;;;;;;23.05;5.05;;;;;;;;;;5035353;28;20052;-76
2023/03/23 09:09:35;;;;;;;24.58;5.03;;;;;;;;;;5052516;28;20095;-76
2023/03/23 09:12:01;;;;;;;26.83;5.57;;;;;;;;;;5053224;28;20458;-75
2023/03/23 09:14:27;;;;;;;27.15;5.05;;;;;;;;;;5017488;28;20127;-76
2023/03/23 09:16:53;;;;;;;21.48;4.97;;;;;;;;;;5018003;28;20056;-76
2023/03/23 09:19:20;;;;;;;24.33;4.97;;;;;;;;;;5034895;28;20332;-76
2023/03/23 09:21:46;;;;;;;28.10;5.57;;;;;;;;;;5051763;28;20132;-75
2023/03/23 09:24:12;;;;;;;21.23;4.80;;;;;;;;;;5018112;28;20135;-75
2023/03/23 09:26:38;;;;;;;19.85;4.82;;;;;;;;;;5034358;28;20041;-75
2023/03/23 09:29:04;;;;;;;28.67;5.60;;;;;;;;;;5033704;28;20052;-75
2023/03/23 09:31:31;;;;;;;17.75;4.60;;;;;;;;;;5052922;28;20490;-75
2023/03/23 09:33:58;;;;;;;25.23;5.10;;;;;;;;;;5051965;28;20049;-75
2023/03/23 09:36:25;;;;;;;23.17;4.80;;;;;;;;;;5051970;28;20045;-75
2023/03/23 09:38:52;;;;;;;23.75;5.20;;;;;;;;;;5051982;28;20147;-76
2023/03/23 09:41:30;;;;;;;26.45;5.15;;;;;;;;;;5052528;28;20052;-75
2023/03/23 09:44:03;;;;;;;18.23;5.50;;;;;;;;;;5052132;28;20048;-76
2023/03/23 09:46:30;;;;;;;23.67;5.13;;;;;;;;;;5034586;28;20041;-76
2023/03/23 09:48:59;;;;;;;21.95;4.90;;;;;;;;;;5034253;28;20094;-76
2023/03/23 09:51:25;;;;;;;22.73;5.47;;;;;;;;;;5052322;28;20080;-76
2023/03/23 09:54:11;;;;;;;23.13;4.65;;;;;;;;;;5034448;28;20080;-76
2023/03/23 09:56:37;;;;;;;21.48;4.40;;;;;;;;;;5018434;28;20084;-76
2023/03/23 09:59:16;;;;;;;20.20;4.60;;;;;;;;;;5052090;28;20463;-75
2023/03/23 10:01:53;;;;;;;17.80;4.70;;;;;;;;;;5034435;28;20041;-76
2023/03/23 10:04:19;;;;;;;21.52;4.43;;;;;;;;;;5051434;28;20045;-76
2023/03/23 10:06:47;;;;;;;17.15;4.13;;;;;;;;;;5052039;28;20094;-76
2023/03/23 10:09:14;;;;;;;19.88;3.67;;;;;;;;;;5051825;28;20402;-76
2023/03/23 10:11:57;;;;;;;21.00;4.05;;;;;;;;;;5034650;28;20045;-76
2023/03/23 10:14:38;;;;;;;19.73;4.53;;;;;;;;;;5034265;28;20045;-76
2023/03/23 10:17:10;;;;;;;15.75;4.38;;;;;;;;;;5034545;28;20123;-76
2023/03/23 10:19:56;;;;;;;19.45;4.50;;;;;;;;;;5050856;28;20041;-77
2023/03/23 10:22:26;;;;;;;17.30;3.90;;;;;;;;;;5021267;28;20053;-76
2023/03/23 10:24:55;;;;;;;15.45;4.03;;;;;;;;;;5051846;28;20109;-76
2023/03/23 10:27:27;;;;;;;16.65;4.40;;;;;;;;;;5017581;28;20045;-75
2023/03/23 10:29:58;;;;;;;16.50;4.38;;;;;;;;;;5031911;28;20090;-76
2023/03/23 10:32:44;;;;;;;16.92;3.83;;;;;;;;;;5052316;28;20052;-75
2023/03/23 10:35:12;;;;;;;16.10;3.90;;;;;;;;;;5017475;28;20103;-76
2023/03/23 10:37:44;;;;;;;16.38;4.25;;;;;;;;;;5052021;28;20041;-75
2023/03/23 10:40:15;;;;;;;21.00;4.70;;;;;;;;;;5055722;28;20047;-76
2023/03/23 10:42:42;;;;;;;19.17;4.22;;;;;;;;;;5055955;28;20040;-75
2023/03/23 10:45:15;;;;;;;23.73;4.40;;;;;;;;;;5055857;28;20128;-76
2023/03/23 10:47:43;;;;;;;18.95;4.30;;;;;;;;;;5037898;28;20102;-76
2023/03/23 10:50:17;;;;;;;23.58;4.50;;;;;;;;;;5037909;28;20064;-76
2023/03/23 10:52:44;;;;;;;24.13;5.43;;;;;;;;;;5055482;28;20053;-76
2023/03/23 10:55:23;;;;;;;19.70;4.55;;;;;;;;;;5021195;28;20059;-76
2023/03/23 10:58:01;;;;;;;16.23;4.18;;;;;;;;;;5038053;28;20049;-77
2023/03/23 11:00:27;;;;;;;16.85;4.20;;;;;;;;;;5037607;28;20123;-76
2023/03/23 11:03:00;;;;;;;15.05;4.43;;;;;;;;;;5037682;28;20057;-76
2023/03/23 11:05:27;;;;;;;17.42;4.15;;;;;;;;;;5055478;28;20187;-76
2023/03/23 11:07:55;;;;;;;14.98;3.97;;;;;;;;;;5055417;28;20041;-76
2023/03/23 11:10:23;;;;;;;18.15;4.35;;;;;;;;;;5037014;28;20111;-76
2023/03/23 11:12:50;;;;;;;17.75;3.97;;;;;;;;;;5036850;28;20122;-75
2023/03/23 11:15:39;;;;;;;11.05;3.38;;;;;;;;;;5036857;28;20052;-75
2023/03/23 11:18:12;;;;;;;12.93;3.85;;;;;;;;;;5013593;28;20095;-75
2023/03/23 11:20:41;;;;;;;15.50;3.58;;;;;;;;;;5020549;28;20061;-74
2023/03/23 11:23:15;;;;;;;12.80;3.28;;;;;;;;;;5036981;28;20435;-74
2023/03/23 11:25:52;;;;;;;13.85;3.63;;;;;;;;;;5036945;28;20052;-75
2023/03/23 11:28:19;;;;;;;13.77;3.75;;;;;;;;;;5036974;28;20072;-77
2023/03/23 11:30:46;;;;;;;13.85;3.78;;;;;;;;;;5036655;28;20512;-74
2023/03/23 11:33:15;;;;;;;13.52;3.53;;;;;;;;;;5054612;28;20057;-75
2023/03/23 11:35:44;;;;;;;11.07;3.10;;;;;;;;;;5054749;28;20132;-75
2023/03/23 11:38:15;;;;;;;10.88;3.42;;;;;;;;;;5054968;28;20048;-75
2023/03/23 11:40:48;;;;;;;13.93;3.80;;;;;;;;;;5036578;28;20049;-75
2023/03/23 11:43:18;;;;;;;11.85;3.50;;;;;;;;;;5020273;28;20382;-75
2023/03/23 11:45:58;;;;;;;9.80;3.22;;;;;;;;;;5036801;28;20045;-75
2023/03/23 11:48:40;;;;;;;11.88;3.10;;;;;;;;;;5054761;28;20128;-75
2023/03/23 11:51:16;;;;;;;11.45;3.30;;;;;;;;;;5053763;28;20045;-75
2023/03/23 11:53:42;;;;;;;10.05;3.00;;;;;;;;;;5054292;28;20041;-75
2023/03/23 11:56:12;;;;;;;11.13;3.00;;;;;;;;;;5036165;28;20120;-75
2023/03/23 11:58:38;;;;;;;10.90;2.90;;;;;;;;;;5036159;28;20052;-75
2023/03/23 12:01:04;;;;;;;8.75;2.80;;;;;;;;;;5019426;28;20057;-75
2023/03/23 12:03:46;;;;;;;12.93;3.55;;;;;;;;;;5053658;28;20052;-75
2023/03/23 12:06:13;;;;;;;10.27;2.65;;;;;;;;;;5054057;28;20132;-75
2023/03/23 12:08:58;;;;;;;10.50;2.63;;;;;;;;;;5054326;28;20053;-75
2023/03/23 12:11:28;;;;;;;9.57;2.85;;;;;;;;;;5054008;28;20560;-75
2023/03/23 12:14:18;;;;;;;9.18;2.70;;;;;;;;;;5036058;28;20114;-75
2023/03/23 12:17:02;;;;;;;10.40;2.75;;;;;;;;;;5048572;28;20068;-75
2023/03/23 12:19:32;;;;;;;9.70;3.15;;;;;;;;;;5053863;28;20136;-76
2023/03/23 12:22:08;;;;;;;8.38;2.70;;;;;;;;;;5036227;28;20402;-75
2023/03/23 12:24:43;;;;;;;11.13;3.00;;;;;;;;;;5053766;28;20045;-76
2023/03/23 12:27:22;;;;;;;10.60;2.92;;;;;;;;;;5034012;28;20083;-76
2023/03/23 12:29:58;;;;;;;9.82;2.80;;;;;;;;;;5052140;28;20049;-76
2023/03/23 12:32:43;;;;;;;11.30;3.08;;;;;;;;;;5036175;28;20050;-77
2023/03/23 12:35:18;;;;;;;9.55;3.08;;;;;;;;;;5053514;28;20051;-76
2023/03/23 12:37:53;;;;;;;10.70;3.00;;;;;;;;;;5060759;28;20045;-76
2023/03/23 12:40:22;;;;;;;11.85;2.95;;;;;;;;;;5055512;28;20044;-76
2023/03/23 12:42:59;;;;;;;12.05;3.10;;;;;;;;;;5038692;28;20450;-76
2023/03/23 12:45:25;;;;;;;10.57;3.20;;;;;;;;;;5073487;28;20045;-77
2023/03/23 12:47:58;;;;;;;10.25;2.83;;;;;;;;;;5055453;28;20044;-77
2023/03/23 12:50:30;;;;;;;11.52;3.20;;;;;;;;;;5073237;28;20538;-74
2023/03/23 12:52:59;;;;;;;9.02;2.88;;;;;;;;;;5055507;28;20044;-74
2023/03/23 12:55:32;;;;;;;13.65;3.20;;;;;;;;;;5073116;28;20094;-74
2023/03/23 12:58:09;;;;;;;14.13;3.10;;;;;;;;;;5073409;28;20067;-74
2023/03/23 13:00:50;;;;;;;11.95;3.15;;;;;;;;;;5072841;28;20040;-74
2023/03/23 13:03:21;;;;;;;13.40;3.10;;;;;;;;;;5052737;28;20408;-74
2023/03/23 13:05:54;;;;;;;12.25;3.28;;;;;;;;;;5072937;28;20416;-75
2023/03/23 13:08:22;;;;;;;11.57;2.92;;;;;;;;;;5038270;28;20558;-74
2023/03/23 13:10:49;;;;;;;11.23;3.22;;;;;;;;;;5055463;28;20397;-74
2023/03/23 13:13:25;;;;;;;11.23;2.85;;;;;;;;;;5037963;28;20081;-75
2023/03/23 13:16:04;;;;;;;11.48;3.13;;;;;;;;;;5054563;28;20056;-75
2023/03/23 13:18:49;;;;;;;13.20;3.15;;;;;;;;;;5055207;28;20409;-76
2023/03/23 13:21:21;;;;;;;15.30;4.03;;;;;;;;;;5038539;28;20109;-75
2023/03/23 13:23:51;;;;;;;15.05;3.53;;;;;;;;;;5054254;28;20311;-75
2023/03/23 13:26:22;;;;;;;16.08;3.45;;;;;;;;;;5038329;28;20036;-75
2023/03/23 13:28:52;;;;;;;13.68;3.10;;;;;;;;;;5071812;28;20135;-75
2023/03/23 13:31:25;;;;;;;16.15;3.50;;;;;;;;;;5071446;28;20080;-75
2023/03/23 13:33:51;;;;;;;15.13;3.42;;;;;;;;;;5072314;28;20095;-75
2023/03/23 13:36:26;;;;;;;13.45;3.38;;;;;;;;;;5054691;28;20432;-75
2023/03/23 13:38:52;;;;;;;14.07;3.13;;;;;;;;;;5055332;28;20045;-75
2023/03/23 13:41:21;;;;;;;15.57;3.78;;;;;;;;;;5052588;28;20100;-75
2023/03/23 13:43:47;;;;;;;18.05;3.67;;;;;;;;;;5051578;28;20131;-75
2023/03/23 13:46:20;;;;;;;16.65;3.90;;;;;;;;;;5032135;28;20049;-75
2023/03/23 13:48:47;;;;;;;13.02;3.90;;;;;;;;;;5052270;28;20044;-75
2023/03/23 13:51:31;;;;;;;14.52;3.33;;;;;;;;;;5052034;28;20048;-75
2023/03/23 13:54:14;;;;;;;14.88;3.67;;;;;;;;;;5033826;28;20053;-75
2023/03/23 13:56:40;;;;;;;14.35;3.45;;;;;;;;;;5050437;28;20416;-75
2023/03/23 13:59:15;;;;;;;16.52;4.05;;;;;;;;;;5051726;28;20048;-75
2023/03/23 14:01:42;;;;;;;18.10;3.70;;;;;;;;;;5034369;28;20049;-76
2023/03/23 14:04:11;;;;;;;14.88;3.33;;;;;;;;;;5032829;28;20139;-75
2023/03/23 14:06:38;;;;;;;14.52;3.42;;;;;;;;;;5052215;28;20052;-75
2023/03/23 14:09:06;;;;;;;14.55;3.13;;;;;;;;;;5051441;28;20060;-75
2023/03/23 14:11:39;;;;;;;13.02;3.65;;;;;;;;;;5052124;28;20183;-75
2023/03/23 14:14:06;;;;;;;13.43;3.38;;;;;;;;;;5033327;28;20049;-74
2023/03/23 14:16:35;;;;;;;12.45;2.95;;;;;;;;;;5034266;28;20104;-75
2023/03/23 14:19:03;;;;;;;13.15;3.33;;;;;;;;;;5051640;28;20041;-75
2023/03/23 14:21:39;;;;;;;14.77;3.55;;;;;;;;;;5034378;28;20064;-75
2023/03/23 14:24:32;;;;;;;13.50;3.50;;;;;;;;;;5033909;28;20049;-75
2023/03/23 14:27:10;;;;;;;13.77;3.53;;;;;;;;;;5031461;28;20060;-75
2023/03/23 14:29:36;;;;;;;13.57;3.53;;;;;;;;;;5051559;28;20456;-75
2023/03/23 14:32:03;;;;;;;17.15;3.05;;;;;;;;;;5034214;28;20379;-75
2023/03/23 14:34:32;;;;;;;13.43;3.40;;;;;;;;;;5051636;28;20106;-75
2023/03/23 14:36:59;;;;;;;15.02;3.08;;;;;;;;;;5051623;28;20041;-75
2023/03/23 14:39:28;;;;;;;11.93;3.15;;;;;;;;;;5033437;28;20103;-75
2023/03/23 14:41:55;;;;;;;14.32;3.53;;;;;;;;;;5017253;28;20045;-75